createdAt,value
2018-12-03T00:01:46.072Z,11.30
2018-12-03T00:04:15.228Z,11.40
2018-12-03T00:06:43.202Z,11.40
2018-12-03T00:09:14.184Z,11.30
2018-12-03T00:11:41.623Z,11.40
2018-12-03T00:14:09.012Z,11.30
2018-12-03T00:16:36.444Z,11.30
2018-12-03T00:19:04.170Z,11.30
2018-12-03T00:21:31.677Z,11.30
2018-12-03T00:23:59.163Z,11.20
2018-12-03T00:26:26.632Z,11.20
2018-12-03T00:28:54.104Z,11.20
2018-12-03T00:31:21.621Z,11.20
2018-12-03T00:33:49.136Z,11.20
2018-12-03T00:36:16.620Z,11.10
2018-12-03T00:38:44.116Z,11.10
2018-12-03T00:41:11.661Z,11.10
2018-12-03T00:43:39.149Z,11.10
2018-12-03T00:46:06.548Z,11.00
2018-12-03T00:48:33.945Z,11.00
2018-12-03T00:51:01.305Z,11.00
2018-12-03T00:53:28.673Z,11.00
2018-12-03T00:55:56.090Z,10.90
2018-12-03T00:58:23.448Z,10.90
2018-12-03T01:00:50.834Z,10.90
2018-12-03T01:03:18.223Z,10.80
2018-12-03T01:05:45.611Z,10.70
2018-12-03T01:08:13.004Z,10.70
2018-12-03T01:10:40.404Z,10.70
2018-12-03T01:13:07.816Z,10.70
2018-12-03T01:15:35.268Z,10.70
2018-12-03T01:18:02.680Z,10.70
2018-12-03T01:20:30.040Z,10.70
2018-12-03T01:22:57.420Z,10.70
2018-12-03T01:25:24.812Z,10.60
2018-12-03T01:27:52.201Z,10.60
2018-12-03T01:30:19.600Z,10.60
2018-12-03T01:32:47.024Z,10.60
2018-12-03T01:35:14.429Z,10.60
2018-12-03T01:37:41.796Z,10.60
2018-12-03T01:40:10.272Z,10.50
2018-12-03T01:42:38.248Z,10.50
2018-12-03T01:45:08.480Z,10.60
2018-12-03T01:47:35.872Z,10.60
2018-12-03T01:50:04.495Z,10.60
2018-12-03T01:52:31.876Z,10.50
2018-12-03T01:54:59.276Z,10.50
2018-12-03T01:57:26.637Z,10.50
2018-12-03T01:59:54.012Z,10.50
2018-12-03T02:02:21.388Z,10.40
2018-12-03T02:04:48.755Z,10.40
2018-12-03T02:07:16.162Z,10.40
2018-12-03T02:09:43.552Z,10.30
2018-12-03T02:12:10.933Z,10.30
2018-12-03T02:14:38.332Z,10.30
2018-12-03T02:17:05.724Z,10.30
2018-12-03T02:19:33.093Z,10.30
2018-12-03T02:22:00.452Z,10.40
2018-12-03T02:24:27.852Z,10.40
2018-12-03T02:26:55.214Z,10.30
2018-12-03T02:29:22.576Z,10.40
2018-12-03T02:31:49.960Z,10.40
2018-12-03T02:34:17.331Z,10.30
2018-12-03T02:36:44.733Z,10.30
2018-12-03T02:39:12.109Z,10.30
2018-12-03T02:41:39.484Z,10.30
2018-12-03T02:44:07.839Z,10.40
2018-12-03T02:46:35.213Z,10.40
2018-12-03T02:49:02.600Z,10.40
2018-12-03T02:51:29.983Z,10.40
2018-12-03T02:53:57.360Z,10.40
2018-12-03T02:56:24.729Z,10.40
2018-12-03T02:58:52.113Z,10.30
2018-12-03T03:01:19.496Z,10.40
2018-12-03T03:03:46.856Z,10.40
2018-12-03T03:06:14.232Z,10.40
2018-12-03T03:08:41.631Z,10.40
2018-12-03T03:11:09.001Z,10.40
2018-12-03T03:13:36.380Z,10.40
2018-12-03T03:16:03.839Z,10.40
2018-12-03T03:18:31.204Z,10.40
2018-12-03T03:20:58.574Z,10.40
2018-12-03T03:23:25.968Z,10.40
2018-12-03T03:25:53.649Z,10.40
2018-12-03T03:28:21.012Z,10.40
2018-12-03T03:30:48.398Z,10.50
2018-12-03T03:33:15.793Z,10.50
2018-12-03T03:35:43.165Z,10.50
2018-12-03T03:38:10.548Z,10.50
2018-12-03T03:40:37.960Z,10.50
2018-12-03T03:43:05.716Z,10.50
2018-12-03T03:45:33.100Z,10.50
2018-12-03T03:48:00.488Z,10.50
2018-12-03T03:50:31.458Z,10.50
2018-12-03T03:52:58.845Z,10.50
2018-12-03T03:55:26.216Z,10.50
2018-12-03T03:57:53.576Z,10.60
2018-12-03T04:00:21.022Z,10.60
2018-12-03T04:02:48.412Z,10.60
2018-12-03T04:05:15.813Z,10.60
2018-12-03T04:07:44.316Z,10.60
2018-12-03T04:10:12.380Z,10.60
2018-12-03T04:12:40.367Z,10.60
2018-12-03T04:15:09.100Z,10.60
2018-12-03T04:17:36.477Z,10.60
2018-12-03T04:20:09.104Z,10.70
2018-12-03T04:22:36.486Z,10.70
2018-12-03T04:25:05.027Z,10.70
2018-12-03T04:27:33.404Z,10.80
2018-12-03T04:30:00.784Z,10.80
2018-12-03T04:32:28.152Z,10.80
2018-12-03T04:34:55.534Z,10.80
2018-12-03T04:37:29.196Z,10.80
2018-12-03T04:39:56.559Z,10.80
2018-12-03T04:42:23.946Z,10.80
2018-12-03T04:44:51.312Z,10.80
2018-12-03T04:47:18.675Z,10.80
2018-12-03T04:49:46.070Z,10.80
2018-12-03T04:52:13.440Z,10.80
2018-12-03T04:54:40.804Z,10.80
2018-12-03T04:57:08.201Z,10.80
2018-12-03T04:59:35.574Z,10.80
2018-12-03T05:02:02.969Z,10.80
2018-12-03T05:04:30.361Z,10.80
2018-12-03T05:06:57.732Z,10.80
2018-12-03T05:09:25.128Z,10.80
2018-12-03T05:11:52.492Z,10.70
2018-12-03T05:14:19.860Z,10.80
2018-12-03T05:16:47.225Z,10.80
2018-12-03T05:19:14.608Z,10.80
2018-12-03T05:21:41.969Z,10.80
2018-12-03T05:24:09.336Z,10.80
2018-12-03T05:26:36.731Z,10.80
2018-12-03T05:29:04.625Z,10.80
2018-12-03T05:31:32.000Z,10.80
2018-12-03T05:33:59.372Z,10.80
2018-12-03T05:36:26.753Z,10.90
2018-12-03T05:38:54.112Z,10.90
2018-12-03T05:41:21.495Z,10.90
2018-12-03T05:43:48.881Z,10.90
2018-12-03T05:46:16.282Z,10.90
2018-12-03T05:48:43.660Z,10.90
2018-12-03T05:51:11.036Z,10.90
2018-12-03T05:53:38.396Z,10.90
2018-12-03T05:56:05.777Z,10.90
2018-12-03T05:58:33.168Z,10.90
2018-12-03T06:01:00.533Z,10.90
2018-12-03T06:03:27.909Z,10.90
2018-12-03T06:05:55.335Z,10.90
2018-12-03T06:08:22.716Z,10.90
2018-12-03T06:10:50.112Z,10.80
2018-12-03T06:13:17.500Z,10.70
2018-12-03T06:15:44.892Z,10.70
2018-12-03T06:18:12.276Z,10.70
2018-12-03T06:20:39.652Z,10.70
2018-12-03T06:23:07.015Z,10.70
2018-12-03T06:25:34.400Z,10.70
2018-12-03T06:28:01.804Z,10.80
2018-12-03T06:30:29.181Z,10.70
2018-12-03T06:32:56.573Z,10.70
2018-12-03T06:35:27.476Z,10.70
2018-12-03T06:37:54.840Z,10.70
2018-12-03T06:40:26.628Z,10.60
2018-12-03T06:42:54.032Z,10.70
2018-12-03T06:45:25.397Z,10.70
2018-12-03T06:47:55.875Z,10.70
2018-12-03T06:50:23.304Z,10.70
2018-12-03T06:52:50.697Z,10.70
2018-12-03T06:55:18.071Z,10.70
2018-12-03T06:57:45.475Z,10.70
2018-12-03T07:00:14.993Z,10.70
2018-12-03T07:02:43.615Z,10.70
2018-12-03T07:05:11.164Z,10.70
2018-12-03T07:07:38.989Z,10.70
2018-12-03T07:10:11.944Z,10.70
2018-12-03T07:12:39.337Z,10.70
2018-12-03T07:15:08.701Z,10.80
2018-12-03T07:17:36.044Z,10.80
2018-12-03T07:20:06.436Z,10.80
2018-12-03T07:22:33.813Z,10.80
2018-12-03T07:25:01.198Z,10.80
2018-12-03T07:27:28.581Z,10.80
2018-12-03T07:29:55.970Z,10.80
2018-12-03T07:32:23.385Z,10.80
2018-12-03T07:34:50.775Z,10.80
2018-12-03T07:37:18.167Z,10.80
2018-12-03T07:39:45.584Z,10.90
2018-12-03T07:42:12.953Z,10.90
2018-12-03T07:44:40.352Z,10.90
2018-12-03T07:47:07.732Z,10.90
2018-12-03T07:49:35.108Z,10.80
2018-12-03T07:52:02.504Z,10.80
2018-12-03T07:54:29.880Z,10.70
2018-12-03T07:56:57.268Z,10.70
2018-12-03T07:59:24.673Z,10.60
2018-12-03T08:01:52.060Z,10.60
2018-12-03T08:04:19.444Z,10.60
2018-12-03T08:06:46.860Z,10.60
2018-12-03T08:09:14.248Z,10.70
2018-12-03T08:11:41.624Z,10.70
2018-12-03T08:14:10.018Z,10.80
2018-12-03T08:16:40.600Z,10.90
2018-12-03T08:19:07.964Z,11.10
2018-12-03T08:21:35.358Z,11.10
2018-12-03T08:24:08.476Z,11.20
